createdAt,value
2023-02-14T00:00:11.814Z,8.87
2023-02-14T00:03:37.783Z,11.67
2023-02-14T00:06:37.812Z,10.03
2023-02-14T00:10:01.834Z,9.23
2023-02-14T00:13:01.791Z,10.60
2023-02-14T00:16:04.428Z,9.00
2023-02-14T00:19:17.801Z,9.57
2023-02-14T00:22:30.833Z,8.83
2023-02-14T00:25:31.842Z,9.35
2023-02-14T00:28:43.831Z,9.50
2023-02-14T00:32:08.924Z,9.33
2023-02-14T00:35:34.922Z,9.63
2023-02-14T00:38:46.852Z,10.70
2023-02-14T00:41:59.891Z,8.67
2023-02-14T00:44:59.901Z,10.05
2023-02-14T00:48:13.009Z,10.23
2023-02-14T00:51:26.964Z,8.80
2023-02-14T00:54:39.941Z,9.73
2023-02-14T00:57:40.929Z,9.07
2023-02-14T01:00:53.012Z,8.77
2023-02-14T01:04:04.977Z,8.80
2023-02-14T01:07:31.002Z,8.80
2023-02-14T01:10:44.070Z,9.07
2023-02-14T01:14:08.071Z,10.00
2023-02-14T01:17:07.966Z,9.17
2023-02-14T01:20:39.022Z,8.80
2023-02-14T01:23:53.020Z,9.00
2023-02-14T01:27:05.041Z,10.10
2023-02-14T01:30:05.065Z,8.95
2023-02-14T01:33:17.082Z,9.00
2023-02-14T01:36:29.033Z,9.40
2023-02-14T01:39:55.060Z,9.27
2023-02-14T01:43:07.086Z,10.43
2023-02-14T01:46:20.077Z,8.87
2023-02-14T01:49:32.079Z,9.77
2023-02-14T01:52:57.126Z,9.20
2023-02-14T01:56:24.105Z,9.10
2023-02-14T01:59:48.148Z,9.35
2023-02-14T02:02:48.192Z,9.57
2023-02-14T02:06:12.174Z,9.37
2023-02-14T02:09:26.180Z,9.05
2023-02-14T02:12:52.196Z,9.00
2023-02-14T02:16:04.163Z,8.55
2023-02-14T02:19:33.181Z,8.77
2023-02-14T02:22:50.278Z,8.90
2023-02-14T02:26:19.238Z,9.70
2023-02-14T02:29:36.254Z,7.95
2023-02-14T02:33:06.245Z,9.27
2023-02-14T02:36:22.225Z,8.70
2023-02-14T02:39:49.275Z,8.30
2023-02-14T02:43:13.306Z,8.90
2023-02-14T02:46:43.258Z,8.90
2023-02-14T02:50:14.164Z,9.00
2023-02-14T02:53:41.356Z,8.40
2023-02-14T02:57:06.335Z,8.37
2023-02-14T03:00:32.397Z,8.37
2023-02-14T03:03:50.740Z,8.60
2023-02-14T03:07:17.392Z,8.17
2023-02-14T03:10:43.366Z,8.40
2023-02-14T03:14:12.315Z,7.97
2023-02-14T03:17:24.361Z,9.05
2023-02-14T03:20:48.420Z,9.20
2023-02-14T03:24:00.424Z,8.47
2023-02-14T03:27:26.424Z,9.53
2023-02-14T03:30:50.615Z,8.60
2023-02-14T03:34:14.495Z,9.35
2023-02-14T03:37:26.493Z,8.37
2023-02-14T03:40:51.444Z,8.95
2023-02-14T03:44:17.515Z,8.53
2023-02-14T03:47:41.505Z,7.50
2023-02-14T03:50:53.496Z,8.73
2023-02-14T03:54:17.530Z,7.93
2023-02-14T03:57:29.527Z,8.43
2023-02-14T04:00:55.491Z,7.73
2023-02-14T04:04:23.528Z,8.55
2023-02-14T04:07:35.597Z,7.43
2023-02-14T04:10:47.531Z,8.10
2023-02-14T04:13:59.565Z,7.67
2023-02-14T04:17:31.370Z,7.50
2023-02-14T04:20:43.598Z,8.17
2023-02-14T04:24:07.630Z,8.17
2023-02-14T04:27:07.603Z,8.43
2023-02-14T04:30:35.639Z,8.97
2023-02-14T04:33:49.627Z,8.10
2023-02-14T04:37:01.606Z,7.80
2023-02-14T04:40:01.700Z,8.67
2023-02-14T04:43:13.697Z,8.10
2023-02-14T04:46:13.702Z,6.97
2023-02-14T04:49:39.687Z,8.10
2023-02-14T04:52:39.712Z,7.90
2023-02-14T04:55:51.792Z,6.97
2023-02-14T04:58:51.720Z,7.97
2023-02-14T05:02:04.777Z,7.57
2023-02-14T05:05:18.772Z,7.50
2023-02-14T05:08:31.766Z,7.57
2023-02-14T05:11:31.708Z,7.47
2023-02-14T05:14:43.785Z,8.03
2023-02-14T05:17:43.727Z,7.90
2023-02-14T05:21:09.808Z,6.70
2023-02-14T05:24:09.830Z,7.87
2023-02-14T05:27:21.900Z,6.90
2023-02-14T05:30:35.828Z,6.75
2023-02-14T05:33:48.862Z,6.70
2023-02-14T05:37:02.762Z,6.67
2023-02-14T05:40:14.838Z,7.37
2023-02-14T05:43:14.868Z,7.00
2023-02-14T05:46:26.815Z,7.13
2023-02-14T05:49:26.885Z,7.15
2023-02-14T05:52:52.953Z,8.27
2023-02-14T05:56:04.868Z,7.37
2023-02-14T05:59:19.918Z,7.05
2023-02-14T06:02:31.989Z,7.07
2023-02-14T06:05:55.888Z,6.27
2023-02-14T06:09:09.966Z,6.93
2023-02-14T06:12:21.955Z,7.70
2023-02-14T06:15:22.948Z,6.83
2023-02-14T06:18:35.003Z,6.87
2023-02-14T06:21:34.950Z,6.97
2023-02-14T06:25:00.994Z,7.00
2023-02-14T06:28:12.958Z,6.60
2023-02-14T06:31:41.116Z,6.47
2023-02-14T06:34:41.039Z,7.30
2023-02-14T06:38:04.993Z,7.43
2023-02-14T06:41:19.043Z,6.80
2023-02-14T06:44:43.001Z,7.07
2023-02-14T06:47:43.023Z,6.75
2023-02-14T06:50:55.099Z,7.15
2023-02-14T06:53:55.151Z,7.20
2023-02-14T06:57:21.086Z,6.90
2023-02-14T07:00:37.082Z,6.70
2023-02-14T07:03:52.051Z,6.95
2023-02-14T07:06:52.094Z,6.70
2023-02-14T07:10:05.132Z,6.00
2023-02-14T07:13:19.094Z,8.80
2023-02-14T07:16:31.143Z,7.20
2023-02-14T07:19:31.128Z,7.20
2023-02-14T07:22:43.167Z,6.67
2023-02-14T07:25:43.219Z,6.93
2023-02-14T07:29:08.099Z,6.20
2023-02-14T07:32:08.323Z,8.43
2023-02-14T07:35:22.132Z,7.40
2023-02-14T07:38:22.159Z,8.75
2023-02-14T07:41:34.283Z,6.93
2023-02-14T07:45:20.805Z,7.57
2023-02-14T07:48:18.195Z,6.70
2023-02-14T07:51:18.194Z,7.80
2023-02-14T07:54:30.268Z,8.20
2023-02-14T07:57:42.311Z,7.33
2023-02-14T08:01:08.301Z,7.10
2023-02-14T08:04:20.314Z,7.03
2023-02-14T08:07:20.287Z,6.30
2023-02-14T08:10:32.312Z,7.80
2023-02-14T08:13:44.344Z,7.00
2023-02-14T08:17:09.340Z,6.60
2023-02-14T08:20:09.363Z,6.30
2023-02-14T08:23:21.362Z,7.70
2023-02-14T08:26:33.309Z,7.40
2023-02-14T08:29:46.372Z,8.37
2023-02-14T08:33:00.469Z,8.10
2023-02-14T08:36:13.412Z,7.90
2023-02-14T08:39:25.371Z,9.47
2023-02-14T08:42:37.392Z,7.10
2023-02-14T08:45:37.555Z,7.15
2023-02-14T08:49:02.380Z,8.50
2023-02-14T08:52:02.499Z,8.17
2023-02-14T08:55:15.384Z,7.80
2023-02-14T08:58:27.392Z,8.65
2023-02-14T09:01:39.496Z,8.33
2023-02-14T09:04:53.502Z,8.80
2023-02-14T09:08:17.387Z,10.40
2023-02-14T09:11:33.490Z,9.55
2023-02-14T09:14:59.433Z,9.67
2023-02-14T09:18:11.497Z,10.93
2023-02-14T09:21:37.535Z,10.60
2023-02-14T09:24:37.525Z,12.00
2023-02-14T09:27:49.492Z,12.13
2023-02-14T09:30:49.589Z,15.77
2023-02-14T09:34:20.067Z,15.30
2023-02-14T09:37:41.032Z,14.63
2023-02-14T09:41:06.551Z,12.50
2023-02-14T09:44:21.570Z,9.83
2023-02-14T09:47:45.604Z,9.00
2023-02-14T09:50:57.719Z,11.13
2023-02-14T09:54:24.597Z,8.13
2023-02-14T09:57:36.628Z,8.45
2023-02-14T10:01:01.945Z,9.33
2023-02-14T10:04:30.668Z,10.30
2023-02-14T10:07:42.647Z,9.90
2023-02-14T10:11:07.655Z,9.80
2023-02-14T10:14:19.662Z,10.40
2023-02-14T10:17:43.681Z,8.75
2023-02-14T10:20:55.711Z,8.97
2023-02-14T10:24:21.732Z,10.40
2023-02-14T10:27:35.784Z,10.17
2023-02-14T10:31:01.137Z,9.57
2023-02-14T10:34:16.759Z,10.17
2023-02-14T10:37:45.693Z,10.25
2023-02-14T10:41:00.040Z,9.10
2023-02-14T10:44:28.802Z,10.63
2023-02-14T10:47:44.810Z,10.47
2023-02-14T10:51:10.752Z,11.50
2023-02-14T10:54:25.761Z,10.57
2023-02-14T10:57:49.812Z,11.85
2023-02-14T11:01:04.120Z,10.33
2023-02-14T11:04:27.800Z,11.25
2023-02-14T11:07:39.816Z,11.03
2023-02-14T11:11:04.012Z,10.40
2023-02-14T11:14:17.315Z,11.87
2023-02-14T11:17:51.994Z,11.95
2023-02-14T11:20:51.901Z,11.50
2023-02-14T11:24:15.918Z,13.17
2023-02-14T11:27:27.913Z,12.17
2023-02-14T11:30:51.976Z,12.60
2023-02-14T11:34:05.189Z,13.40
2023-02-14T11:37:28.989Z,10.60
2023-02-14T11:40:47.881Z,13.77
2023-02-14T11:44:03.900Z,9.50
2023-02-14T11:47:15.945Z,13.00
2023-02-14T11:50:46.911Z,14.47
2023-02-14T11:54:00.045Z,15.67
2023-02-14T11:57:25.905Z,14.27
2023-02-14T12:00:40.055Z,15.40
2023-02-14T12:04:04.021Z,12.25
2023-02-14T12:07:18.028Z,15.47
2023-02-14T12:10:43.058Z,13.95
2023-02-14T12:13:55.090Z,15.15
2023-02-14T12:17:20.075Z,15.47
2023-02-14T12:20:33.199Z,15.87
2023-02-14T12:23:59.104Z,14.83
2023-02-14T12:27:11.168Z,15.60
2023-02-14T12:30:36.100Z,16.87
2023-02-14T12:33:37.036Z,15.60
2023-02-14T12:37:07.142Z,15.45
2023-02-14T12:40:24.109Z,15.87
2023-02-14T12:43:56.150Z,16.10
2023-02-14T12:47:11.169Z,15.90
2023-02-14T12:50:44.114Z,16.45
2023-02-14T12:53:58.186Z,15.90
2023-02-14T12:57:24.175Z,15.95
2023-02-14T13:00:44.126Z,14.73
2023-02-14T13:04:23.255Z,15.63
2023-02-14T13:07:35.192Z,15.60
2023-02-14T13:11:03.278Z,17.35
2023-02-14T13:14:21.304Z,15.10
2023-02-14T13:17:47.234Z,16.00
2023-02-14T13:21:02.461Z,14.25
2023-02-14T13:24:29.480Z,16.30
2023-02-14T13:27:41.265Z,15.80
2023-02-14T13:31:07.386Z,15.40
2023-02-14T13:34:19.356Z,15.40
2023-02-14T13:37:43.281Z,16.93
2023-02-14T13:40:55.280Z,16.75
2023-02-14T13:44:19.300Z,15.30
2023-02-14T13:47:32.333Z,16.87
2023-02-14T13:50:56.377Z,14.85
2023-02-14T13:54:08.350Z,14.47
2023-02-14T13:57:38.438Z,15.50
2023-02-14T14:01:03.327Z,15.90
2023-02-14T14:04:29.393Z,15.75
2023-02-14T14:07:43.393Z,14.87
2023-02-14T14:11:07.429Z,16.25
2023-02-14T14:14:20.353Z,15.83
2023-02-14T14:17:47.448Z,15.50
2023-02-14T14:21:04.468Z,15.03
2023-02-14T14:24:39.452Z,15.40
2023-02-14T14:27:52.471Z,15.93
2023-02-14T14:31:16.590Z,16.05
2023-02-14T14:34:16.445Z,15.33
2023-02-14T14:37:43.409Z,14.50
2023-02-14T14:40:55.548Z,16.47
2023-02-14T14:44:19.536Z,16.75
2023-02-14T14:47:31.522Z,16.67
2023-02-14T14:50:55.722Z,15.37
2023-02-14T14:54:09.494Z,14.87
2023-02-14T14:57:36.551Z,16.43
2023-02-14T15:00:49.592Z,15.50
2023-02-14T15:04:14.612Z,15.60
2023-02-14T15:07:41.577Z,15.95
2023-02-14T15:11:07.585Z,15.55
2023-02-14T15:14:06.713Z,17.45
2023-02-14T15:17:30.562Z,15.80
2023-02-14T15:20:42.601Z,16.03
2023-02-14T15:24:10.641Z,16.15
2023-02-14T15:27:24.644Z,13.97
2023-02-14T15:30:48.773Z,15.40
2023-02-14T15:34:00.656Z,15.73
2023-02-14T15:37:24.640Z,17.07
2023-02-14T15:40:40.714Z,15.20
2023-02-14T15:44:06.708Z,16.10
2023-02-14T15:47:19.662Z,16.45
2023-02-14T15:50:42.740Z,15.37
2023-02-14T15:53:56.722Z,16.40
2023-02-14T15:57:08.784Z,15.90
2023-02-14T16:00:22.825Z,15.90
2023-02-14T16:03:46.724Z,15.25
2023-02-14T16:06:59.752Z,14.83
2023-02-14T16:10:38.738Z,15.43
2023-02-14T16:13:53.761Z,15.83
2023-02-14T16:17:23.777Z,15.27
2023-02-14T16:20:45.928Z,14.57
2023-02-14T16:24:09.810Z,15.67
2023-02-14T16:27:09.864Z,15.27
2023-02-14T16:30:39.880Z,15.77
2023-02-14T16:33:55.318Z,14.73
2023-02-14T16:37:18.897Z,15.87
2023-02-14T16:40:31.915Z,15.73
2023-02-14T16:43:43.887Z,17.40
2023-02-14T16:46:55.939Z,17.33
2023-02-14T16:50:21.919Z,16.17
2023-02-14T16:53:36.919Z,18.25
2023-02-14T16:57:01.887Z,16.60
2023-02-14T17:00:13.939Z,15.55
2023-02-14T17:03:25.874Z,15.60
2023-02-14T17:06:40.898Z,14.90
2023-02-14T17:10:05.017Z,16.00
2023-02-14T17:13:16.914Z,17.00
2023-02-14T17:16:41.071Z,17.67
2023-02-14T17:19:53.198Z,14.95
2023-02-14T17:23:18.024Z,15.43
2023-02-14T17:26:18.992Z,15.20
2023-02-14T17:29:31.032Z,15.10
2023-02-14T17:32:31.029Z,17.07
2023-02-14T17:35:55.981Z,15.95
2023-02-14T17:39:10.076Z,15.70
2023-02-14T17:42:22.073Z,13.07
2023-02-14T17:45:23.049Z,14.00
2023-02-14T17:48:35.082Z,13.80
2023-02-14T17:51:47.023Z,13.57
2023-02-14T17:55:13.030Z,13.55
2023-02-14T17:58:13.107Z,12.35
2023-02-14T18:01:25.185Z,12.43
2023-02-14T18:04:49.094Z,13.20
2023-02-14T18:07:50.151Z,12.57
2023-02-14T18:11:16.103Z,12.55
2023-02-14T18:14:16.135Z,12.35
2023-02-14T18:17:28.140Z,12.13
2023-02-14T18:20:28.107Z,11.97
2023-02-14T18:23:52.196Z,12.73
2023-02-14T18:27:06.163Z,15.80
2023-02-14T18:30:20.344Z,12.50
2023-02-14T18:33:20.207Z,12.40
2023-02-14T18:36:44.237Z,16.05
2023-02-14T18:39:45.233Z,11.40
2023-02-14T18:43:10.223Z,12.57
2023-02-14T18:46:26.278Z,14.27
2023-02-14T18:49:39.251Z,13.87
2023-02-14T18:52:39.268Z,11.53
2023-02-14T18:55:52.315Z,11.95
2023-02-14T18:59:06.266Z,11.00
2023-02-14T19:02:19.307Z,11.83
2023-02-14T19:05:20.344Z,15.17
2023-02-14T19:08:32.366Z,13.65
2023-02-14T19:11:44.337Z,11.27
2023-02-14T19:15:10.376Z,12.10
2023-02-14T19:18:10.342Z,15.40
2023-02-14T19:21:35.384Z,16.45
2023-02-14T19:24:35.402Z,16.00
2023-02-14T19:27:59.416Z,14.63
2023-02-14T19:31:13.545Z,14.93
2023-02-14T19:34:39.445Z,12.20
2023-02-14T19:37:39.407Z,17.77
2023-02-14T19:41:09.442Z,12.20
2023-02-14T19:44:22.729Z,11.57
2023-02-14T19:47:47.626Z,12.60
2023-02-14T19:50:46.448Z,10.47
2023-02-14T19:53:58.484Z,10.97
2023-02-14T19:57:10.471Z,10.87
2023-02-14T20:00:23.489Z,11.33
2023-02-14T20:03:49.466Z,10.80
2023-02-14T20:07:01.466Z,11.90
2023-02-14T20:10:13.515Z,12.75
2023-02-14T20:13:13.568Z,11.17
2023-02-14T20:16:25.615Z,12.13
2023-02-14T20:19:39.503Z,11.20
2023-02-14T20:23:04.566Z,11.10
2023-02-14T20:26:04.546Z,10.23
2023-02-14T20:29:29.533Z,11.40
2023-02-14T20:32:29.611Z,11.30
2023-02-14T20:35:54.548Z,10.80
2023-02-14T20:38:54.680Z,12.05
2023-02-14T20:42:07.613Z,11.57
2023-02-14T20:45:07.687Z,10.60
2023-02-14T20:48:20.611Z,10.93
2023-02-14T20:51:36.636Z,11.43
2023-02-14T20:55:00.695Z,11.13
2023-02-14T20:58:00.614Z,11.03
2023-02-14T21:01:29.653Z,11.20
2023-02-14T21:04:32.660Z,11.40
2023-02-14T21:07:59.669Z,11.10
2023-02-14T21:11:00.010Z,10.75
2023-02-14T21:14:24.774Z,10.75
2023-02-14T21:17:24.718Z,12.05
2023-02-14T21:20:36.757Z,10.20
2023-02-14T21:23:50.703Z,10.67
2023-02-14T21:27:02.753Z,10.50
2023-02-14T21:30:02.777Z,10.93
2023-02-14T21:33:15.803Z,10.70
2023-02-14T21:36:30.785Z,11.57
2023-02-14T21:39:56.759Z,10.50
2023-02-14T21:42:56.796Z,11.35
2023-02-14T21:46:21.889Z,10.60
2023-02-14T21:49:39.184Z,11.73
2023-02-14T21:52:52.840Z,11.00
2023-02-14T21:56:06.831Z,11.05
2023-02-14T21:59:31.808Z,11.73
2023-02-14T22:02:34.899Z,11.60
2023-02-14T22:05:46.856Z,11.43
2023-02-14T22:08:58.885Z,12.50
2023-02-14T22:12:24.882Z,11.77
2023-02-14T22:15:37.001Z,10.95
2023-02-14T22:19:00.920Z,10.95
2023-02-14T22:22:12.871Z,11.47
2023-02-14T22:25:24.865Z,10.55
2023-02-14T22:28:38.875Z,10.45
2023-02-14T22:32:02.996Z,11.47
2023-02-14T22:35:02.890Z,11.47
2023-02-14T22:38:14.949Z,11.10
2023-02-14T22:41:29.926Z,11.63
2023-02-14T22:44:54.954Z,11.20
2023-02-14T22:47:55.017Z,11.45
2023-02-14T22:51:07.010Z,10.77
2023-02-14T22:54:19.013Z,11.60
2023-02-14T22:57:32.048Z,11.47
2023-02-14T23:00:45.982Z,10.63
2023-02-14T23:04:10.021Z,11.43
2023-02-14T23:07:22.094Z,11.57
2023-02-14T23:10:34.061Z,11.03
2023-02-14T23:13:45.287Z,16.15
2023-02-14T23:17:16.666Z,12.15
2023-02-14T23:20:31.816Z,10.20
2023-02-14T23:23:56.072Z,11.50
2023-02-14T23:27:02.140Z,11.45
2023-02-14T23:30:28.255Z,10.65
2023-02-14T23:33:42.156Z,11.33
2023-02-14T23:36:55.184Z,12.90
2023-02-14T23:39:55.153Z,12.00
2023-02-14T23:43:07.158Z,10.73
2023-02-14T23:46:07.278Z,11.73
2023-02-14T23:49:34.212Z,11.60
2023-02-14T23:52:34.176Z,10.15
2023-02-14T23:55:46.197Z,11.37
2023-02-14T23:58:46.223Z,11.50
